Time;durP1;ratioP1;P1;durP2;ratioP2;P2;SDS_P1;SDS_P2;PMS_P1;PMS_P2;Temp;Humidity;BMP_temperature;BMP_pressure;BME280_temperature;BME280_humidity;BME280_pressure;Samples;Min_cycle;Max_cycle;Signal;HPM_P1;HPM_P2
2023/11/13 00:00:38;;;;;;;;;;;;;;;17.71;49.85;98938.13;10327640;28;826;-75
2023/11/13 00:05:34;;;;;;;;;;;;;;;17.72;49.71;98946.88;10326823;28;936;-76
2023/11/13 00:10:30;;;;;;;;;;;;;;;17.70;50.01;98927.63;10327272;28;1894;-76
2023/11/13 00:15:26;;;;;;;;;;;;;;;17.70;49.64;98939.03;10327125;28;775;-75
2023/11/13 00:20:22;;;;;;;;;;;;;;;17.70;49.86;98935.56;10326256;28;906;-75
2023/11/13 00:25:17;;;;;;;;;;;;;;;17.67;49.84;98936.56;10325588;28;973;-75
2023/11/13 00:30:13;;;;;;;;;;;;;;;17.67;49.75;98927.81;10326095;28;1961;-75
2023/11/13 00:35:09;;;;;;;;;;;;;;;17.66;49.63;98926.13;10325892;28;943;-75
2023/11/13 00:40:05;;;;;;;;;;;;;;;17.66;49.74;98932.25;10325797;28;965;-76
2023/11/13 00:45:01;;;;;;;;;;;;;;;17.65;49.76;98927.06;10326271;28;862;-75
2023/11/13 00:49:57;;;;;;;;;;;;;;;17.64;49.68;98934.13;10326048;28;1914;-76
2023/11/13 00:54:54;;;;;;;;;;;;;;;17.63;49.85;98927.16;10325476;28;1738;-75
2023/11/13 00:59:51;;;;;;;;;;;;;;;17.64;49.89;98923.56;10325365;28;882;-75
2023/11/13 01:04:47;;;;;;;;;;;;;;;17.63;49.63;98918.38;10325863;28;877;-76
2023/11/13 01:09:45;;;;;;;;;;;;;;;17.62;49.72;98912.25;10324530;28;1886;-75
2023/11/13 01:14:41;;;;;;;;;;;;;;;17.60;49.66;98895.69;10324462;28;1188;-75
2023/11/13 01:19:37;;;;;;;;;;;;;;;17.58;49.56;98873.84;10325660;28;880;-75
2023/11/13 01:24:33;;;;;;;;;;;;;;;17.60;49.68;98863.22;10324323;28;897;-75
2023/11/13 01:29:29;;;;;;;;;;;;;;;17.58;49.72;98863.31;10324812;28;1882;-75
2023/11/13 01:34:24;;;;;;;;;;;;;;;17.58;49.70;98867.72;10332217;28;905;-75
2023/11/13 01:39:20;;;;;;;;;;;;;;;17.57;49.56;98856.31;10333175;28;905;-75
2023/11/13 01:44:16;;;;;;;;;;;;;;;17.56;49.73;98852.00;10332407;28;781;-75
2023/11/13 01:49:12;;;;;;;;;;;;;;;17.57;49.69;98853.69;10332118;28;1963;-75
2023/11/13 01:54:08;;;;;;;;;;;;;;;17.58;49.55;98844.00;10332676;28;799;-75
2023/11/13 01:59:04;;;;;;;;;;;;;;;17.54;49.57;98843.34;10331811;28;884;-75
2023/11/13 02:04:00;;;;;;;;;;;;;;;17.54;49.54;98835.44;10332236;28;918;-75
2023/11/13 02:08:56;;;;;;;;;;;;;;;17.53;49.55;98821.41;10331359;28;1963;-75
2023/11/13 02:13:52;;;;;;;;;;;;;;;17.54;49.54;98830.16;10331932;28;878;-75
2023/11/13 02:18:48;;;;;;;;;;;;;;;17.52;49.54;98832.03;10331643;28;806;-74
2023/11/13 02:23:43;;;;;;;;;;;;;;;17.50;49.70;98831.25;10331537;28;838;-74
2023/11/13 02:28:39;;;;;;;;;;;;;;;17.49;49.97;98821.66;10330431;28;1947;-74
2023/11/13 02:33:35;;;;;;;;;;;;;;;17.48;49.61;98822.59;10331355;28;960;-75
2023/11/13 02:38:31;;;;;;;;;;;;;;;17.47;49.83;98819.09;10331098;28;909;-75
2023/11/13 02:43:27;;;;;;;;;;;;;;;17.46;49.88;98827.94;10329718;28;866;-75
2023/11/13 02:48:23;;;;;;;;;;;;;;;17.45;49.88;98828.06;10330566;28;1906;-74
2023/11/13 02:53:19;;;;;;;;;;;;;;;17.41;49.62;98801.03;10330755;28;901;-74
2023/11/13 02:58:15;;;;;;;;;;;;;;;17.40;49.81;98807.25;10329733;28;766;-75
2023/11/13 03:03:11;;;;;;;;;;;;;;;17.42;49.81;98809.75;10329448;28;837;-74
2023/11/13 03:08:08;;;;;;;;;;;;;;;17.41;49.85;98793.13;10329752;28;1893;-74
2023/11/13 03:13:04;;;;;;;;;;;;;;;17.40;49.78;98787.97;10329000;28;1121;-75
2023/11/13 03:18:00;;;;;;;;;;;;;;;17.39;49.94;98786.25;10328829;28;865;-75
2023/11/13 03:22:56;;;;;;;;;;;;;;;17.39;49.80;98786.25;10328674;28;791;-74
2023/11/13 03:27:51;;;;;;;;;;;;;;;17.40;49.75;98777.41;10328397;28;1915;-75
2023/11/13 03:32:47;;;;;;;;;;;;;;;17.39;49.66;98762.53;10328142;28;1286;-74
2023/11/13 03:37:43;;;;;;;;;;;;;;;17.36;49.95;98760.91;10328045;28;972;-74
2023/11/13 03:42:39;;;;;;;;;;;;;;;17.36;49.64;98754.81;10327847;28;774;-74
2023/11/13 03:47:36;;;;;;;;;;;;;;;17.36;49.75;98755.66;10328134;28;1977;-74
2023/11/13 03:52:32;;;;;;;;;;;;;;;17.38;49.89;98759.06;10327968;28;837;-74
2023/11/13 03:57:29;;;;;;;;;;;;;;;17.35;49.81;98761.03;10327545;28;943;-74
2023/11/13 04:02:26;;;;;;;;;;;;;;;17.35;49.93;98771.56;10327026;28;779;-75
2023/11/13 04:07:24;;;;;;;;;;;;;;;17.34;49.96;98778.59;10327389;28;1969;-75
2023/11/13 04:12:19;;;;;;;;;;;;;;;17.35;49.81;98769.78;10327738;28;786;-75
2023/11/13 04:17:15;;;;;;;;;;;;;;;17.33;49.77;98776.06;10327168;28;834;-74
2023/11/13 04:22:12;;;;;;;;;;;;;;;17.31;49.83;98782.25;10326322;28;841;-74
2023/11/13 04:27:09;;;;;;;;;;;;;;;17.30;49.98;98788.47;10326759;28;1947;-75
2023/11/13 04:32:05;;;;;;;;;;;;;;;17.29;49.80;98799.94;10326838;28;1300;-75
2023/11/13 04:37:02;;;;;;;;;;;;;;;17.36;49.77;98799.59;10325869;28;898;-74
2023/11/13 04:41:58;;;;;;;;;;;;;;;17.36;49.78;98781.16;10326499;28;837;-74
2023/11/13 04:46:53;;;;;;;;;;;;;;;17.40;49.59;98780.91;10325628;28;1901;-74
2023/11/13 04:51:49;;;;;;;;;;;;;;;17.44;49.43;98763.97;10326229;28;853;-74
2023/11/13 04:56:46;;;;;;;;;;;;;;;17.46;49.55;98777.91;10326218;28;925;-74
2023/11/13 05:01:42;;;;;;;;;;;;;;;17.48;49.58;98765.50;10325367;28;1027;-74
2023/11/13 05:06:38;;;;;;;;;;;;;;;17.51;49.50;98749.50;10324404;28;1886;-75
2023/11/13 05:11:34;;;;;;;;;;;;;;;17.51;49.50;98738.97;10325783;28;917;-74
2023/11/13 05:16:30;;;;;;;;;;;;;;;17.57;49.35;98742.19;10325021;28;969;-74
2023/11/13 05:21:26;;;;;;;;;;;;;;;17.60;49.23;98720.91;10324397;28;1067;-74
2023/11/13 05:26:22;;;;;;;;;;;;;;;17.56;49.49;98691.28;10324872;28;1902;-74
2023/11/13 05:31:18;;;;;;;;;;;;;;;17.61;49.26;98676.03;10325607;28;1549;-74
2023/11/13 05:36:14;;;;;;;;;;;;;;;17.63;49.29;98684.72;10324681;28;1142;-74
2023/11/13 05:41:10;;;;;;;;;;;;;;;17.61;49.43;98676.03;10324528;28;912;-74
2023/11/13 05:46:07;;;;;;;;;;;;;;;17.62;49.30;98672.47;10324540;28;1965;-75
2023/11/13 05:51:03;;;;;;;;;;;;;;;17.66;49.42;98665.25;10324440;28;771;-75
2023/11/13 05:55:59;;;;;;;;;;;;;;;17.64;49.22;98665.31;10324360;28;957;-74
2023/11/13 06:00:55;;;;;;;;;;;;;;;17.65;49.14;98669.63;10325154;28;939;-74
2023/11/13 06:05:51;;;;;;;;;;;;;;;17.70;49.38;98675.47;10324766;28;763;-74
2023/11/13 06:10:47;;;;;;;;;;;;;;;17.68;49.15;98697.59;10324334;28;1961;-74
2023/11/13 06:15:43;;;;;;;;;;;;;;;17.66;49.35;98691.59;10324588;28;885;-74
2023/11/13 06:20:39;;;;;;;;;;;;;;;17.69;49.27;98691.41;10331177;28;902;-74
2023/11/13 06:25:34;;;;;;;;;;;;;;;17.71;49.17;98697.41;10330365;28;802;-74
2023/11/13 06:30:30;;;;;;;;;;;;;;;17.68;49.24;98693.19;10330281;28;1894;-74
2023/11/13 06:35:27;;;;;;;;;;;;;;;17.71;49.37;98687.75;10331594;28;955;-75
2023/11/13 06:40:23;;;;;;;;;;;;;;;17.71;49.34;98686.88;10331014;28;770;-74
2023/11/13 06:45:18;;;;;;;;;;;;;;;17.71;49.25;98686.88;10330969;28;822;-75
2023/11/13 06:50:14;;;;;;;;;;;;;;;17.72;49.26;98673.59;10330549;28;1910;-75
2023/11/13 06:55:13;;;;;;;;;;;;;;;17.79;48.97;98662.69;10329922;28;776;-76
2023/11/13 07:00:09;;;;;;;;;;;;;;;17.80;49.00;98656.53;10329667;28;877;-73
2023/11/13 07:05:05;;;;;;;;;;;;;;;17.80;49.18;98664.44;10330206;28;849;-75
2023/11/13 07:10:02;;;;;;;;;;;;;;;17.77;49.02;98656.69;10329204;28;1956;-75
2023/11/13 07:14:58;;;;;;;;;;;;;;;17.72;49.52;98659.59;10328996;28;897;-75
2023/11/13 07:19:54;;;;;;;;;;;;;;;17.67;49.55;98646.69;10329324;28;869;-75
2023/11/13 07:24:49;;;;;;;;;;;;;;;17.62;49.66;98651.38;10329992;28;884;-75
2023/11/13 07:29:45;;;;;;;;;;;;;;;17.58;49.61;98647.25;10328233;28;1894;-75
2023/11/13 07:34:41;;;;;;;;;;;;;;;17.52;49.76;98643.16;10328249;28;876;-74
2023/11/13 07:39:37;;;;;;;;;;;;;;;17.51;49.63;98633.59;10327430;28;967;-75
2023/11/13 07:44:33;;;;;;;;;;;;;;;17.55;49.90;98644.78;10327411;28;909;-75
2023/11/13 07:49:30;;;;;;;;;;;;;;;17.62;49.58;98640.00;10327515;28;1969;-76
2023/11/13 07:54:26;;;;;;;;;;;;;;;17.61;49.94;98638.31;10326740;28;854;-75
2023/11/13 07:59:22;;;;;;;;;;;;;;;17.64;49.91;98641.59;10327197;28;937;-75
2023/11/13 08:04:18;;;;;;;;;;;;;;;17.61;50.16;98633.03;10327613;28;893;-75
2023/11/13 08:09:15;;;;;;;;;;;;;;;17.65;49.90;98613.47;10327571;28;1959;-76
2023/11/13 08:14:13;;;;;;;;;;;;;;;17.70;49.85;98606.97;10326663;28;882;-74
2023/11/13 08:19:09;;;;;;;;;;;;;;;17.71;49.95;98590.22;10326515;28;842;-73
2023/11/13 08:24:06;;;;;;;;;;;;;;;17.75;49.90;98588.25;10326955;28;824;-73
2023/11/13 08:29:02;;;;;;;;;;;;;;;17.81;49.69;98587.03;10326370;28;1949;-76
2023/11/13 08:33:58;;;;;;;;;;;;;;;17.79;49.90;98604.69;10325617;28;1059;-75
2023/11/13 08:38:54;;;;;;;;;;;;;;;17.77;49.95;98599.53;10326015;28;864;-76
2023/11/13 08:43:50;;;;;;;;;;;;;;;17.81;49.76;98587.03;10325510;28;781;-76
2023/11/13 08:48:46;;;;;;;;;;;;;;;17.78;50.00;98580.13;10326866;28;1902;-76
2023/11/13 08:53:46;;;;;;;;;;;;;;;17.78;50.11;98572.22;10325233;28;1000;-75
2023/11/13 08:58:42;;;;;;;;;;;;;;;17.78;50.03;98566.97;10325391;28;1000;-76
2023/11/13 09:03:39;;;;;;;;;;;;;;;17.75;50.14;98568.00;10325933;28;854;-75
2023/11/13 09:08:36;;;;;;;;;;;;;;;17.68;50.29;98561.44;10326167;28;1943;-75
2023/11/13 09:13:32;;;;;;;;;;;;;;;17.64;50.40;98567.81;10325310;28;919;-75
2023/11/13 09:18:29;;;;;;;;;;;;;;;17.63;49.88;98558.22;10326304;28;876;-75
2023/11/13 09:23:26;;;;;;;;;;;;;;;17.61;50.15;98560.09;10325568;28;873;-75
2023/11/13 09:28:22;;;;;;;;;;;;;;;17.62;50.34;98564.41;10324861;28;1959;-75
2023/11/13 09:33:18;;;;;;;;;;;;;;;17.63;50.24;98546.81;10324694;28;1286;-75
2023/11/13 09:38:15;;;;;;;;;;;;;;;17.62;50.25;98538.06;10325607;28;845;-75
2023/11/13 09:43:12;;;;;;;;;;;;;;;17.64;50.17;98532.72;10324800;28;802;-75
2023/11/13 09:48:08;;;;;;;;;;;;;;;17.66;50.16;98515.88;10324983;28;1981;-75
2023/11/13 09:53:04;;;;;;;;;;;;;;;17.65;50.18;98510.69;10328479;28;791;-75
2023/11/13 09:58:00;;;;;;;;;;;;;;;17.68;50.03;98514.00;10332529;28;842;-75
2023/11/13 10:02:56;;;;;;;;;;;;;;;17.72;49.94;98515.47;10332376;28;848;-75
2023/11/13 10:07:52;;;;;;;;;;;;;;;17.69;49.92;98510.41;10331574;28;1904;-75
2023/11/13 10:12:48;;;;;;;;;;;;;;;17.76;49.92;98484.50;10331269;28;767;-76
2023/11/13 10:17:44;;;;;;;;;;;;;;;17.78;49.86;98458.06;10331317;28;846;-75
2023/11/13 10:22:40;;;;;;;;;;;;;;;17.76;49.77;98434.41;10331066;28;913;-75
2023/11/13 10:27:36;;;;;;;;;;;;;;;17.80;49.86;98412.25;10331466;28;1955;-75
2023/11/13 10:32:32;;;;;;;;;;;;;;;17.83;49.85;98382.22;10331581;28;1110;-75
2023/11/13 10:37:29;;;;;;;;;;;;;;;17.82;49.91;98362.91;10330611;28;855;-75
2023/11/13 10:42:26;;;;;;;;;;;;;;;17.84;49.78;98365.44;10330397;28;810;-75
2023/11/13 10:47:23;;;;;;;;;;;;;;;17.83;50.07;98337.41;10329448;28;1964;-75
2023/11/13 10:52:21;;;;;;;;;;;;;;;17.83;49.79;98329.50;10331041;28;857;-75
2023/11/13 10:57:17;;;;;;;;;;;;;;;17.84;49.91;98312.72;10329776;28;917;-76
2023/11/13 11:02:13;;;;;;;;;;;;;;;17.84;49.67;98303.03;10330013;28;755;-75
2023/11/13 11:07:09;;;;;;;;;;;;;;;17.86;49.74;98287.13;10328808;28;1893;-75
2023/11/13 11:12:05;;;;;;;;;;;;;;;17.85;49.99;98256.44;10329826;28;834;-75
2023/11/13 11:17:02;;;;;;;;;;;;;;;17.88;49.81;98245.69;10328971;28;968;-75
2023/11/13 11:22:00;;;;;;;;;;;;;;;17.85;49.72;98230.09;10329926;28;878;-76
2023/11/13 11:26:58;;;;;;;;;;;;;;;17.84;49.86;98200.25;10329394;28;1901;-76
2023/11/13 11:31:54;;;;;;;;;;;;;;;17.81;50.09;98196.97;10328802;28;1288;-75
2023/11/13 11:36:50;;;;;;;;;;;;;;;17.84;50.01;98180.94;10327626;28;1015;-76
2023/11/13 11:41:46;;;;;;;;;;;;;;;17.84;49.90;98166.00;10327378;28;1238;-77
2023/11/13 11:46:41;;;;;;;;;;;;;;;17.88;49.90;98156.06;10327755;28;1910;-75
2023/11/13 11:51:38;;;;;;;;;;;;;;;17.88;50.01;98164.81;10327606;28;873;-76
2023/11/13 11:56:34;;;;;;;;;;;;;;;17.85;50.06;98143.09;10326179;28;1128;-75
2023/11/13 12:01:30;;;;;;;;;;;;;;;17.90;49.81;98133.09;10326036;28;870;-75
2023/11/13 12:06:26;;;;;;;;;;;;;;;17.89;49.91;98128.75;10325179;28;1955;-76
2023/11/13 12:11:24;;;;;;;;;;;;;;;17.86;50.11;98106.09;10326600;28;853;-75
2023/11/13 12:16:20;;;;;;;;;;;;;;;17.88;50.02;98106.00;10326015;28;890;-76
2023/11/13 12:21:16;;;;;;;;;;;;;;;17.88;49.91;98092.81;10326624;28;822;-75
2023/11/13 12:26:12;;;;;;;;;;;;;;;17.89;50.09;98094.47;10325480;28;818;-75
2023/11/13 12:31:08;;;;;;;;;;;;;;;17.87;50.18;98081.44;10325058;28;1890;-76
2023/11/13 12:36:05;;;;;;;;;;;;;;;17.89;50.16;98057.59;10325752;28;925;-75
2023/11/13 12:41:01;;;;;;;;;;;;;;;17.93;50.27;98051.16;10324775;28;904;-75
2023/11/13 12:45:57;;;;;;;;;;;;;;;17.88;50.28;98026.91;10326197;28;743;-75
2023/11/13 12:50:53;;;;;;;;;;;;;;;17.91;50.42;98029.31;10324963;28;1910;-75
2023/11/13 12:55:49;;;;;;;;;;;;;;;17.93;50.46;98023.00;10325182;28;990;-75
2023/11/13 13:00:45;;;;;;;;;;;;;;;17.91;50.37;97998.53;10324802;28;890;-75
2023/11/13 13:05:42;;;;;;;;;;;;;;;17.90;50.54;97981.06;10325072;28;873;-75
2023/11/13 13:10:38;;;;;;;;;;;;;;;17.94;50.48;97968.47;10325021;28;1894;-75
2023/11/13 13:15:34;;;;;;;;;;;;;;;17.96;50.41;97953.41;10324927;28;920;-75
2023/11/13 13:20:30;;;;;;;;;;;;;;;17.91;50.67;97930.00;10324454;28;771;-75
2023/11/13 13:25:34;;;;;;;;;;;;;;;17.94;50.54;97924.50;10324792;28;918;-77
2023/11/13 13:30:36;;;;;;;;;;;;;;;17.92;50.67;97912.38;10331787;28;1890;-75
2023/11/13 13:35:32;;;;;;;;;;;;;;;17.91;50.74;97894.91;10332737;28;856;-75
2023/11/13 13:40:28;;;;;;;;;;;;;;;17.95;50.90;97886.66;10332134;28;778;-75
2023/11/13 13:45:25;;;;;;;;;;;;;;;17.93;50.81;97875.38;10332353;28;1021;-75
2023/11/13 13:50:21;;;;;;;;;;;;;;;17.93;50.89;97890.38;10331790;28;1902;-79
2023/11/13 13:55:17;;;;;;;;;;;;;;;17.92;50.80;97907.13;10332170;28;925;-77
2023/11/13 14:00:28;;;;;;;;;;;;;;;17.93;50.78;97895.63;10331966;28;980;-75
2023/11/13 14:05:25;;;;;;;;;;;;;;;17.91;50.88;97872.00;10332002;28;790;-75
2023/11/13 14:10:21;;;;;;;;;;;;;;;17.90;51.06;97877.41;10330983;28;1886;-75
2023/11/13 14:15:17;;;;;;;;;;;;;;;17.92;50.98;97878.13;10332002;28;778;-76
2023/11/13 14:20:16;;;;;;;;;;;;;;;17.92;50.96;97872.84;10331173;28;960;-75
2023/11/13 14:25:13;;;;;;;;;;;;;;;17.90;51.08;97866.88;10331312;28;862;-76
2023/11/13 14:30:11;;;;;;;;;;;;;;;17.88;51.08;97850.31;10331144;28;1973;-77
2023/11/13 14:35:07;;;;;;;;;;;;;;;17.90;51.18;97848.44;10330835;28;774;-75
2023/11/13 14:40:07;;;;;;;;;;;;;;;17.87;51.38;97836.31;10330541;28;807;-76
2023/11/13 14:45:05;;;;;;;;;;;;;;;17.87;51.47;97822.31;10330318;28;893;-75
2023/11/13 14:50:01;;;;;;;;;;;;;;;17.91;51.30;97829.84;10330623;28;1906;-75
2023/11/13 14:54:58;;;;;;;;;;;;;;;17.93;51.61;97838.50;10294550;28;1226;-75
2023/11/13 14:59:54;;;;;;;;;;;;;;;17.92;51.65;97822.78;10289007;28;814;-75
2023/11/13 15:04:50;;;;;;;;;;;;;;;17.91;51.54;97824.56;10289411;28;917;-74
2023/11/13 15:09:46;;;;;;;;;;;;;;;17.95;51.52;97818.13;10289160;28;1957;-75
2023/11/13 15:14:42;;;;;;;;;;;;;;;17.93;51.57;97832.38;10286090;28;1023;-76
2023/11/13 15:19:38;;;;;;;;;;;;;;;17.91;51.77;97829.84;10287286;28;754;-75
2023/11/13 15:24:34;;;;;;;;;;;;;;;17.93;51.70;97804.22;10288244;28;921;-75
2023/11/13 15:29:30;;;;;;;;;;;;;;;17.92;51.72;97791.16;10287730;28;1890;-75
2023/11/13 15:34:25;;;;;;;;;;;;;;;17.92;51.60;97817.50;10287561;28;928;-76
2023/11/13 15:39:21;;;;;;;;;;;;;;;17.93;51.74;97825.31;10287283;28;957;-78
2023/11/13 15:44:18;;;;;;;;;;;;;;;17.99;51.64;97833.72;10287820;28;806;-76
2023/11/13 15:49:14;;;;;;;;;;;;;;;17.98;51.82;97830.25;10286405;28;1906;-75
2023/11/13 15:54:12;;;;;;;;;;;;;;;17.93;51.86;97837.66;10286685;28;782;-75
2023/11/13 15:59:09;;;;;;;;;;;;;;;17.88;52.34;97874.03;10286354;28;905;-76
2023/11/13 16:04:05;;;;;;;;;;;;;;;17.83;52.19;97869.09;10285943;28;1216;-75
2023/11/13 16:09:01;;;;;;;;;;;;;;;17.83;52.52;97849.81;10285541;28;1890;-75
2023/11/13 16:13:57;;;;;;;;;;;;;;;17.77;52.49;97869.53;10286745;28;879;-76
2023/11/13 16:18:53;;;;;;;;;;;;;;;17.77;52.56;97874.81;10285878;28;864;-75
2023/11/13 16:23:48;;;;;;;;;;;;;;;17.80;52.60;97873.78;10287000;28;791;-75
2023/11/13 16:28:44;;;;;;;;;;;;;;;17.80;52.64;97876.41;10285278;28;1886;-75
2023/11/13 16:33:40;;;;;;;;;;;;;;;17.82;52.35;97866.59;10284745;28;925;-76
2023/11/13 16:38:36;;;;;;;;;;;;;;;17.83;52.57;97894.63;10284656;28;944;-75
2023/11/13 16:43:32;;;;;;;;;;;;;;;17.83;52.57;97899.91;10285207;28;913;-75
2023/11/13 16:48:28;;;;;;;;;;;;;;;17.85;52.38;97908.53;10284852;28;1910;-75
2023/11/13 16:53:24;;;;;;;;;;;;;;;17.86;52.42;97918.94;10284769;28;823;-75
2023/11/13 16:58:20;;;;;;;;;;;;;;;17.88;52.22;97924.97;10285785;28;881;-75
2023/11/13 17:03:16;;;;;;;;;;;;;;;17.89;52.06;97907.34;10283752;28;955;-74
2023/11/13 17:08:12;;;;;;;;;;;;;;;17.90;52.19;97922.22;10284468;28;1898;-75
2023/11/13 17:13:08;;;;;;;;;;;;;;;17.93;52.09;97937.81;10284294;28;782;-74
2023/11/13 17:18:04;;;;;;;;;;;;;;;17.95;52.02;97941.19;10284133;28;1171;-75
2023/11/13 17:23:04;;;;;;;;;;;;;;;17.98;51.96;97950.66;10283905;28;918;-75
2023/11/13 17:28:00;;;;;;;;;;;;;;;17.96;51.80;97963.94;10284213;28;1898;-75
2023/11/13 17:32:56;;;;;;;;;;;;;;;17.98;51.90;97963.84;10284067;28;1379;-75
2023/11/13 17:37:52;;;;;;;;;;;;;;;17.99;51.88;97966.34;10284486;28;889;-74
2023/11/13 17:42:48;;;;;;;;;;;;;;;17.94;52.15;97985.13;10283446;28;988;-73
2023/11/13 17:47:44;;;;;;;;;;;;;;;17.93;52.01;98009.81;10284030;28;1972;-73
2023/11/13 17:52:40;;;;;;;;;;;;;;;17.96;51.86;98006.13;10284427;28;885;-73
2023/11/13 17:57:37;;;;;;;;;;;;;;;17.99;51.74;98010.34;10284157;28;866;-72
2023/11/13 18:02:34;;;;;;;;;;;;;;;17.94;52.09;98026.47;10283456;28;985;-72
2023/11/13 18:07:30;;;;;;;;;;;;;;;17.94;52.12;98042.28;10284010;28;1898;-72
2023/11/13 18:12:26;;;;;;;;;;;;;;;17.96;51.89;98049.13;10285696;28;880;-73
2023/11/13 18:17:22;;;;;;;;;;;;;;;17.98;51.88;98062.22;10290677;28;854;-72
2023/11/13 18:22:18;;;;;;;;;;;;;;;17.96;51.89;98070.22;10291771;28;806;-72
2023/11/13 18:27:14;;;;;;;;;;;;;;;17.98;51.77;98069.28;10290256;28;1948;-73
2023/11/13 18:32:10;;;;;;;;;;;;;;;18.00;51.57;98070.00;10290691;28;1372;-73
2023/11/13 18:37:05;;;;;;;;;;;;;;;17.96;51.60;98074.66;10290027;28;891;-72
2023/11/13 18:42:02;;;;;;;;;;;;;;;17.96;51.66;98080.78;10289828;28;791;-72
2023/11/13 18:46:58;;;;;;;;;;;;;;;17.98;51.68;98083.31;10289765;28;1981;-72
2023/11/13 18:51:54;;;;;;;;;;;;;;;18.00;51.60;98102.50;10289489;28;779;-72
2023/11/13 18:56:50;;;;;;;;;;;;;;;18.00;51.50;98113.06;10289184;28;1045;-72
2023/11/13 19:01:46;;;;;;;;;;;;;;;17.93;51.67;98103.88;10288684;28;854;-73
2023/11/13 19:06:42;;;;;;;;;;;;;;;17.98;51.60;98120.22;10288289;28;1890;-74
2023/11/13 19:11:37;;;;;;;;;;;;;;;18.01;51.54;98130.53;10288645;28;879;-74
2023/11/13 19:16:33;;;;;;;;;;;;;;;18.02;51.38;98142.75;10288463;28;842;-75
2023/11/13 19:21:30;;;;;;;;;;;;;;;18.06;51.50;98143.41;10289569;28;973;-74
2023/11/13 19:26:26;;;;;;;;;;;;;;;18.06;51.45;98157.44;10288270;28;794;-74
2023/11/13 19:31:23;;;;;;;;;;;;;;;18.03;51.51;98157.66;10287803;28;1961;-74
2023/11/13 19:36:18;;;;;;;;;;;;;;;18.05;51.44;98163.66;10288465;28;892;-73
2023/11/13 19:41:15;;;;;;;;;;;;;;;18.11;51.48;98179.03;10288164;28;846;-74
2023/11/13 19:46:11;;;;;;;;;;;;;;;18.09;51.50;98193.28;10290313;28;1046;-75
2023/11/13 19:51:08;;;;;;;;;;;;;;;18.09;51.73;98196.75;10326525;28;1981;-72
2023/11/13 19:56:04;;;;;;;;;;;;;;;18.16;51.42;98199.84;10327603;28;818;-73
2023/11/13 20:01:00;;;;;;;;;;;;;;;18.15;51.46;98203.41;10326928;28;854;-73
2023/11/13 20:05:56;;;;;;;;;;;;;;;18.14;51.32;98205.19;10326880;28;1047;-73
2023/11/13 20:10:52;;;;;;;;;;;;;;;18.16;51.45;98213.84;10326490;28;1985;-74
2023/11/13 20:15:48;;;;;;;;;;;;;;;18.16;51.37;98219.13;10327029;28;838;-73
2023/11/13 20:20:44;;;;;;;;;;;;;;;18.13;51.37;98214.06;10326991;28;1603;-73
2023/11/13 20:25:41;;;;;;;;;;;;;;;18.11;51.12;98217.75;10326862;28;945;-74
2023/11/13 20:30:36;;;;;;;;;;;;;;;18.13;51.11;98234.28;10325503;28;1950;-74
2023/11/13 20:35:32;;;;;;;;;;;;;;;18.14;51.05;98242.13;10325402;28;838;-74
2023/11/13 20:40:28;;;;;;;;;;;;;;;18.12;51.20;98246.66;10324969;28;862;-74
2023/11/13 20:45:25;;;;;;;;;;;;;;;18.11;51.08;98255.50;10326435;28;896;-74
2023/11/13 20:50:20;;;;;;;;;;;;;;;18.06;51.01;98248.88;10325070;28;1910;-74
2023/11/13 20:55:17;;;;;;;;;;;;;;;18.05;51.28;98263.84;10325610;28;886;-74
2023/11/13 21:00:13;;;;;;;;;;;;;;;18.05;51.20;98279.69;10324977;28;854;-74
2023/11/13 21:05:09;;;;;;;;;;;;;;;18.03;51.08;98264.91;10323654;28;1132;-75
2023/11/13 21:10:08;;;;;;;;;;;;;;;17.91;51.40;98274.47;10324812;28;1897;-75
2023/11/13 21:15:04;;;;;;;;;;;;;;;17.87;51.24;98265.09;10324979;28;1134;-75
2023/11/13 21:20:02;;;;;;;;;;;;;;;17.84;51.42;98270.53;10325101;28;855;-75
2023/11/13 21:24:58;;;;;;;;;;;;;;;17.84;51.15;98276.69;10325634;28;853;-74
2023/11/13 21:29:54;;;;;;;;;;;;;;;17.83;51.04;98274.16;10324597;28;1955;-75
2023/11/13 21:34:51;;;;;;;;;;;;;;;17.82;51.27;98270.66;10325653;28;896;-75
2023/11/13 21:39:47;;;;;;;;;;;;;;;17.81;51.03;98276.88;10324486;28;1029;-75
2023/11/13 21:44:43;;;;;;;;;;;;;;;17.80;51.00;98301.53;10324026;28;810;-74
2023/11/13 21:49:39;;;;;;;;;;;;;;;17.80;51.01;98300.72;10328906;28;1906;-73
2023/11/13 21:54:36;;;;;;;;;;;;;;;17.78;51.06;98299.94;10331922;28;2040;-74
2023/11/13 21:59:32;;;;;;;;;;;;;;;17.74;51.09;98305.41;10331618;28;822;-74
2023/11/13 22:04:28;;;;;;;;;;;;;;;17.72;50.85;98312.56;10331934;28;778;-74
2023/11/13 22:09:24;;;;;;;;;;;;;;;17.68;51.09;98328.66;10331883;28;1977;-74
2023/11/13 22:14:21;;;;;;;;;;;;;;;17.65;50.82;98326.25;10331548;28;818;-73
2023/11/13 22:19:19;;;;;;;;;;;;;;;17.60;50.99;98328.31;10330640;28;905;-73
2023/11/13 22:24:15;;;;;;;;;;;;;;;17.58;50.87;98317.03;10331205;28;767;-73
2023/11/13 22:29:10;;;;;;;;;;;;;;;17.53;50.81;98326.09;10330852;28;1965;-73
2023/11/13 22:34:07;;;;;;;;;;;;;;;17.49;51.17;98319.31;10330606;28;1067;-74
2023/11/13 22:39:04;;;;;;;;;;;;;;;17.47;50.95;98309.84;10330692;28;853;-73
2023/11/13 22:44:00;;;;;;;;;;;;;;;17.44;50.89;98318.78;10331057;28;810;-73
2023/11/13 22:48:56;;;;;;;;;;;;;;;17.43;51.10;98295.19;10330153;28;1901;-74
2023/11/13 22:53:52;;;;;;;;;;;;;;;17.39;51.13;98288.41;10329536;28;1122;-73
2023/11/13 22:58:51;;;;;;;;;;;;;;;17.33;51.18;98286.19;10329170;28;875;-74
2023/11/13 23:03:47;;;;;;;;;;;;;;;17.31;51.12;98302.91;10329662;28;928;-74
2023/11/13 23:08:42;;;;;;;;;;;;;;;17.26;51.56;98310.25;10328928;28;1890;-73
2023/11/13 23:13:38;;;;;;;;;;;;;;;17.20;51.73;98318.56;10329371;28;887;-73
2023/11/13 23:18:34;;;;;;;;;;;;;;;17.19;51.64;98311.63;10329416;28;945;-73
2023/11/13 23:23:30;;;;;;;;;;;;;;;17.15;51.64;98302.22;10330040;28;808;-74
2023/11/13 23:28:26;;;;;;;;;;;;;;;17.14;51.70;98324.22;10328583;28;1945;-74
2023/11/13 23:33:22;;;;;;;;;;;;;;;17.12;51.89;98309.47;10328466;28;1392;-73
2023/11/13 23:38:18;;;;;;;;;;;;;;;17.09;51.81;98313.97;10329038;28;861;-73
2023/11/13 23:43:15;;;;;;;;;;;;;;;17.07;51.85;98343.97;10328859;28;849;-74
2023/11/13 23:48:12;;;;;;;;;;;;;;;17.05;51.59;98338.78;10328044;28;1985;-74
2023/11/13 23:53:10;;;;;;;;;;;;;;;17.04;51.89;98325.75;10328374;28;873;-73
2023/11/13 23:58:05;;;;;;;;;;;;;;;17.04;51.93;98336.28;10327578;28;819;-74
